createdAt,value
2022-12-20T00:01:50.163Z,4.15
2022-12-20T00:07:12.034Z,4.90
2022-12-20T00:12:33.734Z,3.55
2022-12-20T00:17:55.493Z,1.60
2022-12-20T00:23:17.263Z,1.70
2022-12-20T00:28:40.703Z,1.15
2022-12-20T00:34:02.476Z,3.13
2022-12-20T00:39:24.158Z,1.63
2022-12-20T00:44:45.853Z,1.30
2022-12-20T00:50:07.968Z,2.25
2022-12-20T00:55:29.716Z,0.68
2022-12-20T01:00:56.215Z,0.95
2022-12-20T01:06:19.187Z,1.75
2022-12-20T01:11:40.877Z,1.10
2022-12-20T01:17:02.642Z,0.40
2022-12-20T01:22:24.397Z,1.05
2022-12-20T01:27:46.475Z,2.38
2022-12-20T01:33:08.179Z,0.50
2022-12-20T01:38:30.137Z,0.95
2022-12-20T01:43:54.706Z,0.82
2022-12-20T01:49:24.542Z,0.80
2022-12-20T01:54:49.912Z,0.43
2022-12-20T02:00:12.452Z,0.68
2022-12-20T02:05:42.969Z,1.77
2022-12-20T02:11:38.030Z,0.95
2022-12-20T02:17:18.323Z,1.02
2022-12-20T02:22:42.726Z,0.47
2022-12-20T02:28:17.318Z,0.85
2022-12-20T02:33:43.625Z,1.05
2022-12-20T02:39:05.714Z,1.52
2022-12-20T02:44:49.185Z,1.13
2022-12-20T02:50:11.991Z,0.85
2022-12-20T02:55:54.145Z,1.60
2022-12-20T03:01:28.184Z,1.50
2022-12-20T03:07:07.444Z,1.55
2022-12-20T03:12:29.116Z,0.60
2022-12-20T03:17:50.780Z,1.20
2022-12-20T03:23:12.569Z,0.98
2022-12-20T03:28:34.264Z,2.97
2022-12-20T03:33:56.584Z,1.80
2022-12-20T03:39:18.310Z,1.27
2022-12-20T03:44:40.159Z,1.58
2022-12-20T03:50:01.915Z,1.13
2022-12-20T03:55:24.175Z,0.93
2022-12-20T04:00:45.858Z,4.07
2022-12-20T04:06:07.627Z,2.47
2022-12-20T04:11:29.476Z,2.47
2022-12-20T04:16:51.241Z,1.60
2022-12-20T04:22:12.987Z,4.95
2022-12-20T04:27:34.673Z,0.60
2022-12-20T04:32:56.450Z,2.05
2022-12-20T04:38:19.647Z,1.50
2022-12-20T04:43:41.311Z,3.70
2022-12-20T04:49:03.195Z,1.50
2022-12-20T04:54:27.083Z,0.40
2022-12-20T04:59:48.754Z,2.15
2022-12-20T05:05:10.604Z,1.83
2022-12-20T05:10:32.286Z,1.30
2022-12-20T05:15:55.811Z,0.43
2022-12-20T05:21:36.281Z,0.30
2022-12-20T05:26:58.023Z,0.73
2022-12-20T05:32:19.725Z,0.90
2022-12-20T05:37:41.729Z,1.05
2022-12-20T05:43:03.633Z,1.60
2022-12-20T05:48:25.420Z,0.82
2022-12-20T05:53:47.568Z,0.65
2022-12-20T05:59:09.647Z,0.40
2022-12-20T06:04:32.565Z,1.85
2022-12-20T06:09:54.318Z,0.30
2022-12-20T06:15:16.215Z,0.98
2022-12-20T06:20:38.297Z,2.17
2022-12-20T06:25:59.987Z,4.28
2022-12-20T06:31:21.930Z,3.65
2022-12-20T06:36:43.723Z,4.00
2022-12-20T06:42:05.902Z,3.08
2022-12-20T06:47:27.715Z,2.15
2022-12-20T06:52:49.439Z,1.10
2022-12-20T06:58:11.202Z,5.45
2022-12-20T07:03:33.040Z,4.35
2022-12-20T07:08:55.001Z,7.45
2022-12-20T07:14:16.684Z,2.60
2022-12-20T07:19:38.431Z,11.80
2022-12-20T07:25:00.152Z,5.95
2022-12-20T07:30:21.886Z,6.43
2022-12-20T07:35:49.413Z,9.55
2022-12-20T07:41:17.008Z,16.63
2022-12-20T07:46:38.747Z,9.30
2022-12-20T07:52:02.739Z,8.93
2022-12-20T07:57:31.353Z,7.28
2022-12-20T08:03:06.381Z,4.93
2022-12-20T08:08:28.221Z,5.40
2022-12-20T08:13:57.541Z,6.38
2022-12-20T08:19:19.919Z,7.00
2022-12-20T08:24:41.696Z,4.70
2022-12-20T08:30:04.667Z,3.25
2022-12-20T08:35:26.432Z,6.10
2022-12-20T08:40:48.135Z,4.28
2022-12-20T08:46:12.287Z,3.85
2022-12-20T08:51:34.164Z,1.70
2022-12-20T08:56:56.124Z,5.30
2022-12-20T09:02:18.586Z,4.15
2022-12-20T09:07:40.366Z,3.35
2022-12-20T09:13:02.035Z,3.70
2022-12-20T09:18:23.666Z,5.88
2022-12-20T09:23:45.575Z,2.70
2022-12-20T09:29:07.263Z,3.85
2022-12-20T09:34:28.925Z,3.58
2022-12-20T09:39:51.630Z,1.48
2022-12-20T09:45:29.267Z,1.85
2022-12-20T09:51:21.210Z,1.58
2022-12-20T09:57:08.811Z,1.13
2022-12-20T10:08:15.710Z,1.85
2022-12-20T10:13:55.692Z,1.00
2022-12-20T10:19:53.161Z,1.55
2022-12-20T10:25:23.133Z,2.63
2022-12-20T10:30:44.940Z,20.48
2022-12-20T10:36:24.257Z,22.23
2022-12-20T10:41:52.083Z,18.83
2022-12-20T10:47:33.636Z,13.70
2022-12-20T10:53:10.371Z,6.88
2022-12-20T10:58:35.705Z,12.38
2022-12-20T11:04:03.872Z,8.13
2022-12-20T11:09:32.578Z,12.65
2022-12-20T11:15:19.948Z,5.75
2022-12-20T11:20:53.334Z,15.32
2022-12-20T11:26:42.613Z,12.35
2022-12-20T11:32:28.827Z,10.65
2022-12-20T11:38:08.912Z,3.50
2022-12-20T11:44:24.018Z,6.18
2022-12-20T11:50:09.348Z,11.60
2022-12-20T11:55:36.794Z,5.50
2022-12-20T12:01:04.756Z,4.22
2022-12-20T12:06:31.742Z,3.00
2022-12-20T12:12:07.716Z,4.28
2022-12-20T12:17:43.599Z,8.77
2022-12-20T12:23:24.598Z,4.10
2022-12-20T12:28:53.485Z,4.70
2022-12-20T12:35:01.267Z,2.10
2022-12-20T12:40:52.581Z,8.70
2022-12-20T12:46:20.494Z,2.42
2022-12-20T12:51:51.133Z,4.97
2022-12-20T12:57:17.959Z,3.67
2022-12-20T13:02:50.788Z,7.30
2022-12-20T13:08:17.383Z,4.28
2022-12-20T13:13:39.164Z,2.72
2022-12-20T13:19:11.257Z,2.90
2022-12-20T13:24:37.143Z,2.90
2022-12-20T13:30:22.435Z,2.70
2022-12-20T13:35:54.835Z,2.40
2022-12-20T13:41:45.699Z,1.88
2022-12-20T13:47:28.584Z,4.47
2022-12-20T13:52:51.293Z,13.07
2022-12-20T13:58:17.391Z,4.40
2022-12-20T14:03:48.229Z,3.83
2022-12-20T14:09:32.712Z,11.60
2022-12-20T14:14:55.419Z,7.85
2022-12-20T14:20:24.179Z,13.25
2022-12-20T14:25:53.202Z,6.35
2022-12-20T14:31:34.446Z,13.35
2022-12-20T14:37:35.050Z,9.75
2022-12-20T14:42:57.133Z,5.97
2022-12-20T14:48:18.834Z,12.50
2022-12-20T14:53:40.925Z,3.65
2022-12-20T14:59:15.697Z,7.35
2022-12-20T15:04:37.622Z,3.97
2022-12-20T15:09:59.329Z,7.38
2022-12-20T15:15:29.342Z,8.32
2022-12-20T15:21:05.961Z,2.30
2022-12-20T15:31:52.056Z,5.07
2022-12-20T15:37:18.240Z,3.05
2022-12-20T15:42:43.376Z,2.70
2022-12-20T15:48:05.334Z,2.63
2022-12-20T15:53:32.543Z,7.10
2022-12-20T15:58:54.573Z,1.77
2022-12-20T16:04:19.289Z,2.25
2022-12-20T16:09:40.990Z,6.60
2022-12-20T16:15:02.874Z,3.95
2022-12-20T16:20:24.635Z,4.78
2022-12-20T16:25:46.953Z,1.83
2022-12-20T16:31:17.841Z,2.97
2022-12-20T16:36:39.564Z,4.25
2022-12-20T16:42:01.796Z,3.10
2022-12-20T16:47:23.522Z,2.88
2022-12-20T16:52:46.816Z,5.00
2022-12-20T16:58:08.567Z,6.07
2022-12-20T17:03:30.262Z,6.85
2022-12-20T17:14:27.996Z,5.32
2022-12-20T17:19:49.719Z,7.50
2022-12-20T17:25:19.662Z,2.17
2022-12-20T17:30:41.336Z,4.07
2022-12-20T17:36:03.187Z,4.57
2022-12-20T17:41:31.391Z,4.28
2022-12-20T17:46:54.316Z,5.65
2022-12-20T17:52:16.133Z,3.05
2022-12-20T17:57:37.782Z,3.15
2022-12-20T18:02:59.596Z,1.88
2022-12-20T18:08:21.405Z,3.42
2022-12-20T18:13:45.066Z,2.90
2022-12-20T18:19:08.065Z,9.50
2022-12-20T18:24:29.765Z,10.40
2022-12-20T18:29:54.581Z,10.90
2022-12-20T18:35:16.482Z,8.05
2022-12-20T18:40:38.206Z,17.70
2022-12-20T18:46:07.351Z,6.55
2022-12-20T18:51:39.382Z,7.13
2022-12-20T18:57:01.108Z,9.35
2022-12-20T19:02:22.870Z,14.18
2022-12-20T19:07:44.752Z,5.97
2022-12-20T19:13:06.427Z,10.32
2022-12-20T19:18:28.428Z,9.18
2022-12-20T19:23:52.431Z,8.32
2022-12-20T19:29:14.148Z,12.20
2022-12-20T19:34:35.882Z,10.25
2022-12-20T19:39:57.621Z,12.13
2022-12-20T19:45:19.314Z,7.35
2022-12-20T19:50:40.996Z,10.43
2022-12-20T19:56:03.234Z,10.57
2022-12-20T20:01:27.788Z,4.40
2022-12-20T20:06:49.794Z,3.43
2022-12-20T20:12:11.485Z,2.72
2022-12-20T20:17:33.197Z,3.92
2022-12-20T20:22:55.009Z,4.10
2022-12-20T20:28:17.241Z,5.43
2022-12-20T20:33:39.090Z,7.55
2022-12-20T20:39:00.863Z,15.23
2022-12-20T20:44:22.597Z,17.80
2022-12-20T20:49:44.327Z,11.38
2022-12-20T20:55:07.656Z,6.25
2022-12-20T21:00:31.973Z,20.83
2022-12-20T21:06:32.772Z,21.85
2022-12-20T21:11:37.333Z,8.05
2022-12-20T21:16:59.194Z,19.98
2022-12-20T21:22:20.918Z,11.95
2022-12-20T21:27:42.623Z,15.50
2022-12-20T21:33:04.312Z,14.07
2022-12-20T21:38:26.063Z,13.98
2022-12-20T21:43:47.856Z,16.60
2022-12-20T21:49:09.586Z,25.23
2022-12-20T21:54:31.591Z,21.05
2022-12-20T21:59:53.288Z,11.13
2022-12-20T22:05:15.657Z,12.00
2022-12-20T22:10:37.478Z,16.55
2022-12-20T22:15:59.233Z,9.30
2022-12-20T22:21:24.084Z,16.98
2022-12-20T22:26:45.783Z,7.33
2022-12-20T22:32:07.650Z,7.32
2022-12-20T22:37:29.390Z,7.65
2022-12-20T22:42:51.125Z,9.40
2022-12-20T22:48:12.820Z,6.95
2022-12-20T22:53:35.708Z,7.72
2022-12-20T22:58:57.400Z,5.18
2022-12-20T23:04:19.122Z,4.45
2022-12-20T23:09:40.931Z,7.47
2022-12-20T23:15:21.046Z,4.47
2022-12-20T23:21:01.694Z,1.15
2022-12-20T23:26:23.730Z,5.15
2022-12-20T23:31:45.498Z,4.32
2022-12-20T23:37:07.253Z,3.20
2022-12-20T23:42:29.353Z,1.58
2022-12-20T23:47:51.023Z,1.88
2022-12-20T23:53:12.756Z,4.20
2022-12-20T23:58:35.194Z,2.28
